createdAt,value
2019-04-20T00:00:59.886Z,6.57
2019-04-20T00:03:35.502Z,6.73
2019-04-20T00:06:01.549Z,6.20
2019-04-20T00:08:34.853Z,6.13
2019-04-20T00:11:10.670Z,5.23
2019-04-20T00:13:45.644Z,6.70
2019-04-20T00:16:06.253Z,6.10
2019-04-20T00:18:42.973Z,6.53
2019-04-20T00:21:29.279Z,5.40
2019-04-20T00:24:11.500Z,5.37
2019-04-20T00:27:04.778Z,5.83
2019-04-20T00:29:25.368Z,5.13
2019-04-20T00:31:48.946Z,5.27
2019-04-20T00:34:18.279Z,5.20
2019-04-20T00:36:41.170Z,5.57
2019-04-20T00:39:13.564Z,5.67
2019-04-20T00:41:49.871Z,6.10
2019-04-20T00:44:22.051Z,7.70
2019-04-20T00:46:56.919Z,6.80
2019-04-20T00:49:30.744Z,7.43
2019-04-20T00:52:18.684Z,8.17
2019-04-20T00:54:20.297Z,6.33
2019-04-20T00:56:50.099Z,5.87
2019-04-20T00:59:31.663Z,5.67
2019-04-20T01:02:10.085Z,5.57
2019-04-20T01:04:41.062Z,5.73
2019-04-20T01:07:13.807Z,5.40
2019-04-20T01:10:05.035Z,6.60
2019-04-20T01:12:38.432Z,5.07
2019-04-20T01:15:13.184Z,5.60
2019-04-20T01:17:41.454Z,5.10
2019-04-20T01:20:12.642Z,5.20
2019-04-20T01:22:50.966Z,5.97
2019-04-20T01:25:24.224Z,6.50
2019-04-20T01:28:04.525Z,5.90
2019-04-20T01:30:24.919Z,5.00
2019-04-20T01:33:06.221Z,4.97
2019-04-20T01:35:41.687Z,5.73
2019-04-20T01:38:12.627Z,5.27
2019-04-20T01:40:23.434Z,5.40
2019-04-20T01:42:53.315Z,5.30
2019-04-20T01:45:30.819Z,5.43
2019-04-20T01:47:57.473Z,5.13
2019-04-20T01:50:29.699Z,6.00
2019-04-20T01:53:09.004Z,5.07
2019-04-20T01:55:46.236Z,5.20
2019-04-20T01:58:42.047Z,4.87
2019-04-20T02:01:19.206Z,5.43
2019-04-20T02:03:55.795Z,5.83
2019-04-20T02:06:27.364Z,5.47
2019-04-20T02:09:02.111Z,5.77
2019-04-20T02:11:34.576Z,4.77
2019-04-20T02:14:03.633Z,5.30
2019-04-20T02:16:38.294Z,6.00
2019-04-20T02:19:21.731Z,5.87
2019-04-20T02:21:54.191Z,6.07
2019-04-20T02:24:09.320Z,6.13
2019-04-20T02:26:36.975Z,5.90
2019-04-20T02:29:32.445Z,6.30
2019-04-20T02:32:15.498Z,5.73
2019-04-20T02:34:49.536Z,6.37
2019-04-20T02:40:09.338Z,5.67
2019-04-20T02:42:46.942Z,5.97
2019-04-20T02:45:19.840Z,5.73
2019-04-20T02:50:15.526Z,6.40
2019-04-20T02:52:48.550Z,6.73
2019-04-20T02:55:15.160Z,6.97
2019-04-20T02:57:52.992Z,5.97
2019-04-20T03:00:12.717Z,7.20
2019-04-20T03:02:36.272Z,6.93
2019-04-20T03:05:04.043Z,7.47
2019-04-20T03:07:34.306Z,8.40
2019-04-20T03:10:15.622Z,7.33
2019-04-20T03:12:45.610Z,6.93
2019-04-20T03:15:15.075Z,7.17
2019-04-20T03:17:51.231Z,6.93
2019-04-20T03:20:23.270Z,5.90
2019-04-20T03:23:11.618Z,5.83
2019-04-20T03:25:43.107Z,5.90
2019-04-20T03:28:16.712Z,5.97
2019-04-20T03:31:22.790Z,5.80
2019-04-20T03:33:44.863Z,12.70
2019-04-20T03:36:09.336Z,11.03
2019-04-20T03:38:30.181Z,8.17
2019-04-20T03:40:48.291Z,9.03
2019-04-20T03:43:09.865Z,13.10
2019-04-20T03:45:47.546Z,8.70
2019-04-20T03:48:30.627Z,5.97
2019-04-20T03:51:02.321Z,5.40
2019-04-20T03:53:38.183Z,5.57
2019-04-20T03:56:28.331Z,5.83
2019-04-20T03:59:11.564Z,5.70
2019-04-20T04:02:14.927Z,7.93
2019-04-20T04:04:34.392Z,8.00
2019-04-20T04:06:51.516Z,9.63
2019-04-20T04:09:28.651Z,11.87
2019-04-20T04:11:58.558Z,21.23
2019-04-20T04:14:19.839Z,12.40
2019-04-20T04:16:54.348Z,11.33
2019-04-20T04:19:27.800Z,9.67
2019-04-20T04:22:11.134Z,10.47
2019-04-20T04:24:35.380Z,7.57
2019-04-20T04:27:09.235Z,6.30
2019-04-20T04:29:47.029Z,7.97
2019-04-20T04:32:34.388Z,6.10
2019-04-20T04:34:48.965Z,5.83
2019-04-20T04:37:21.669Z,7.20
2019-04-20T04:39:56.035Z,10.60
2019-04-20T04:42:39.240Z,7.20
2019-04-20T04:44:46.622Z,7.43
2019-04-20T04:47:08.718Z,8.27
2019-04-20T04:49:41.067Z,7.13
2019-04-20T04:52:13.399Z,7.10
2019-04-20T04:54:50.960Z,6.67
2019-04-20T04:57:11.883Z,7.00
2019-04-20T04:59:42.554Z,8.77
2019-04-20T05:02:13.723Z,9.40
2019-04-20T05:05:17.766Z,9.73
2019-04-20T05:07:43.524Z,9.70
2019-04-20T05:10:01.325Z,8.43
2019-04-20T05:12:33.499Z,8.47
2019-04-20T05:15:10.097Z,8.03
2019-04-20T05:17:58.996Z,7.40
2019-04-20T05:20:22.058Z,8.20
2019-04-20T05:23:08.494Z,8.23
2019-04-20T05:26:03.498Z,11.27
2019-04-20T05:28:27.839Z,8.70
2019-04-20T05:30:48.709Z,9.83
2019-04-20T05:33:28.072Z,8.60
2019-04-20T05:36:05.608Z,15.13
2019-04-20T05:38:43.077Z,12.00
2019-04-20T05:41:12.814Z,11.93
2019-04-20T05:43:45.814Z,9.23
2019-04-20T05:46:24.459Z,9.67
2019-04-20T05:48:50.733Z,10.53
2019-04-20T05:51:26.912Z,8.43
2019-04-20T05:53:50.102Z,7.80
2019-04-20T05:56:33.063Z,7.93
2019-04-20T05:58:56.843Z,7.97
2019-04-20T06:01:25.868Z,10.97
2019-04-20T06:03:59.362Z,8.13
2019-04-20T06:06:32.840Z,8.47
2019-04-20T06:09:05.187Z,14.37
2019-04-20T06:11:34.704Z,17.77
2019-04-20T06:14:10.452Z,11.83
2019-04-20T06:17:21.202Z,11.27
2019-04-20T06:19:46.727Z,15.07
2019-04-20T06:22:30.845Z,15.23
2019-04-20T06:25:19.648Z,10.77
2019-04-20T06:27:40.876Z,9.87
2019-04-20T06:30:06.861Z,9.93
2019-04-20T06:33:34.254Z,10.63
2019-04-20T06:36:07.830Z,12.63
2019-04-20T06:38:46.609Z,12.93
2019-04-20T06:41:06.334Z,14.30
2019-04-20T06:43:34.954Z,11.03
2019-04-20T06:46:04.330Z,15.03
2019-04-20T06:48:36.731Z,14.30
2019-04-20T06:50:57.118Z,12.83
2019-04-20T06:53:47.494Z,10.57
2019-04-20T06:56:27.694Z,11.27
2019-04-20T06:58:58.754Z,13.47
2019-04-20T07:01:25.836Z,10.60
2019-04-20T07:04:10.765Z,8.90
2019-04-20T07:06:48.428Z,9.10
2019-04-20T07:09:10.964Z,8.67
2019-04-20T07:11:35.911Z,7.80
2019-04-20T07:13:53.141Z,7.40
2019-04-20T07:16:44.758Z,7.70
2019-04-20T07:19:15.449Z,7.80
2019-04-20T07:24:30.613Z,6.27
2019-04-20T07:26:55.941Z,7.00
2019-04-20T07:29:37.045Z,6.57
2019-04-20T07:32:00.220Z,6.47
2019-04-20T07:34:31.764Z,6.33
2019-04-20T07:37:35.174Z,16.57
2019-04-20T07:39:40.302Z,7.17
2019-04-20T07:42:19.212Z,8.47
2019-04-20T07:44:48.667Z,9.70
2019-04-20T07:47:24.123Z,8.83
2019-04-20T07:49:40.385Z,7.63
2019-04-20T07:51:57.633Z,19.40
2019-04-20T07:55:03.504Z,7.83
2019-04-20T07:57:19.564Z,11.07
2019-04-20T07:59:50.914Z,7.37
2019-04-20T08:02:51.700Z,10.30
2019-04-20T08:05:36.306Z,11.77
2019-04-20T08:08:16.824Z,6.60
2019-04-20T08:10:51.087Z,5.77
2019-04-20T08:13:30.571Z,5.47
2019-04-20T08:18:28.021Z,5.80
2019-04-20T08:20:54.071Z,23.33
2019-04-20T08:23:29.984Z,5.70
2019-04-20T08:25:45.459Z,5.90
2019-04-20T08:28:34.918Z,10.33
2019-04-20T08:31:29.733Z,6.50
2019-04-20T08:34:31.317Z,5.43
2019-04-20T08:36:45.408Z,5.07
2019-04-20T08:41:50.125Z,4.60
2019-04-20T08:44:42.881Z,4.27
2019-04-20T08:47:01.368Z,4.37
2019-04-20T08:49:25.173Z,5.47
2019-04-20T08:51:58.850Z,6.47
2019-04-20T08:54:21.645Z,6.87
2019-04-20T08:56:43.485Z,5.30
2019-04-20T08:59:07.683Z,5.50
2019-04-20T09:01:39.466Z,6.53
2019-04-20T09:04:17.652Z,7.90
2019-04-20T09:06:54.637Z,7.27
2019-04-20T09:09:44.202Z,5.53
2019-04-20T09:12:00.824Z,5.83
2019-04-20T09:14:20.962Z,4.67
2019-04-20T09:16:59.716Z,5.07
2019-04-20T09:19:37.886Z,5.37
2019-04-20T09:22:28.346Z,6.23
2019-04-20T09:25:25.008Z,5.43
2019-04-20T09:27:29.464Z,5.43
2019-04-20T09:30:03.359Z,5.67
2019-04-20T09:32:39.555Z,5.50
2019-04-20T09:35:13.677Z,5.03
2019-04-20T09:37:54.411Z,4.83
2019-04-20T09:40:31.005Z,5.97
2019-04-20T09:42:53.530Z,5.43
2019-04-20T09:45:37.605Z,10.50
2019-04-20T09:48:06.759Z,6.47
2019-04-20T09:50:55.570Z,5.23
2019-04-20T09:53:20.683Z,4.83
2019-04-20T09:55:57.715Z,4.97
2019-04-20T09:58:18.122Z,7.53
2019-04-20T10:00:58.178Z,9.10
2019-04-20T10:03:16.681Z,4.77
2019-04-20T10:05:47.575Z,9.93
2019-04-20T10:08:17.664Z,5.63
2019-04-20T10:10:48.765Z,9.47
2019-04-20T10:13:19.549Z,7.33
2019-04-20T10:15:49.964Z,19.37
2019-04-20T10:18:19.973Z,14.20
2019-04-20T10:20:49.830Z,6.40
2019-04-20T10:23:20.737Z,12.10
2019-04-20T10:25:50.960Z,6.47
2019-04-20T10:28:21.529Z,5.03
2019-04-20T10:30:52.599Z,8.27
2019-04-20T10:33:22.053Z,9.40
2019-04-20T10:35:51.904Z,10.80
2019-04-20T10:38:25.495Z,7.07
2019-04-20T10:41:05.320Z,5.63
2019-04-20T10:43:28.156Z,4.80
2019-04-20T10:45:59.026Z,4.80
2019-04-20T10:48:31.967Z,5.20
2019-04-20T10:51:01.114Z,4.10
2019-04-20T10:53:32.089Z,5.90
2019-04-20T10:56:01.674Z,6.17
2019-04-20T10:58:31.732Z,5.93
2019-04-20T11:01:01.804Z,6.13
2019-04-20T11:03:32.328Z,5.00
2019-04-20T11:06:02.742Z,6.20
2019-04-20T11:08:32.893Z,7.03
2019-04-20T11:11:11.786Z,6.20
2019-04-20T11:13:35.179Z,6.93
2019-04-20T11:16:06.355Z,6.17
2019-04-20T11:18:37.579Z,7.00
2019-04-20T11:21:07.223Z,7.80
2019-04-20T11:23:38.208Z,10.03
2019-04-20T11:26:08.608Z,9.33
2019-04-20T11:28:38.418Z,8.47
2019-04-20T11:31:08.334Z,7.80
2019-04-20T11:33:38.466Z,7.30
2019-04-20T11:36:09.340Z,7.50
2019-04-20T11:38:39.184Z,6.10
2019-04-20T11:41:16.504Z,5.33
2019-04-20T11:43:41.844Z,5.43
2019-04-20T11:46:12.376Z,4.93
2019-04-20T11:48:43.265Z,5.67
2019-04-20T11:51:13.810Z,5.60
2019-04-20T11:53:43.581Z,6.70
2019-04-20T11:56:17.925Z,5.20
2019-04-20T11:58:44.942Z,6.53
2019-04-20T12:01:37.115Z,7.27
2019-04-20T12:04:20.117Z,6.73
2019-04-20T12:06:36.678Z,5.00
2019-04-20T12:09:10.826Z,5.03
2019-04-20T12:11:56.337Z,4.40
2019-04-20T12:14:12.581Z,4.90
2019-04-20T12:16:43.726Z,5.23
2019-04-20T12:19:14.709Z,3.90
2019-04-20T12:21:45.505Z,6.93
2019-04-20T12:24:16.432Z,5.70
2019-04-20T12:26:47.004Z,5.67
2019-04-20T12:29:17.755Z,7.20
2019-04-20T12:31:51.208Z,6.10
2019-04-20T12:34:18.673Z,5.80
2019-04-20T12:36:49.123Z,6.27
2019-04-20T12:39:19.295Z,4.70
2019-04-20T12:41:53.488Z,5.60
2019-04-20T12:44:21.835Z,5.50
2019-04-20T12:46:52.014Z,27.40
2019-04-20T12:49:21.727Z,38.27
2019-04-20T12:51:56.195Z,11.90
2019-04-20T12:54:22.826Z,5.97
2019-04-20T12:56:53.000Z,6.30
2019-04-20T12:59:23.467Z,5.53
2019-04-20T13:01:53.430Z,6.03
2019-04-20T13:04:24.580Z,6.63
2019-04-20T13:06:55.268Z,6.90
2019-04-20T13:09:28.741Z,4.57
2019-04-20T13:12:21.502Z,10.80
2019-04-20T13:15:54.676Z,4.00
2019-04-20T13:18:29.984Z,4.30
2019-04-20T13:21:01.496Z,3.90
2019-04-20T13:23:31.156Z,4.37
2019-04-20T13:26:02.231Z,5.90
2019-04-20T13:28:32.858Z,8.70
2019-04-20T13:31:03.862Z,3.97
2019-04-20T13:33:33.596Z,4.73
2019-04-20T13:36:04.092Z,4.90
2019-04-20T13:38:34.278Z,4.10
2019-04-20T13:41:04.075Z,5.27
2019-04-20T13:43:33.958Z,5.13
2019-04-20T13:46:04.907Z,5.23
2019-04-20T13:48:35.101Z,4.57
2019-04-20T13:51:05.532Z,4.60
2019-04-20T13:53:35.280Z,5.40
2019-04-20T13:56:05.783Z,6.40
2019-04-20T13:58:53.949Z,5.07
2019-04-20T14:01:39.040Z,6.50
2019-04-20T14:04:18.869Z,5.10
2019-04-20T14:06:49.099Z,6.70
2019-04-20T14:09:19.358Z,5.60
2019-04-20T14:11:49.505Z,4.90
2019-04-20T14:14:19.379Z,5.00
2019-04-20T14:16:50.370Z,4.70
2019-04-20T14:19:21.014Z,4.53
2019-04-20T14:21:52.182Z,4.40
2019-04-20T14:24:22.044Z,5.47
2019-04-20T14:26:52.596Z,5.67
2019-04-20T14:29:23.053Z,5.00
2019-04-20T14:31:52.976Z,4.10
2019-04-20T14:34:22.811Z,4.10
2019-04-20T14:36:52.955Z,6.37
2019-04-20T14:39:22.934Z,5.10
2019-04-20T14:41:53.882Z,5.27
2019-04-20T14:44:23.762Z,27.57
2019-04-20T14:46:53.853Z,47.30
2019-04-20T14:49:24.952Z,26.37
2019-04-20T14:51:57.550Z,64.83
2019-04-20T14:54:25.920Z,27.17
2019-04-20T14:56:55.881Z,7.83
2019-04-20T14:59:32.033Z,10.33
2019-04-20T15:02:13.018Z,8.47
2019-04-20T15:04:43.373Z,9.30
2019-04-20T15:07:13.119Z,13.50
2019-04-20T15:09:42.947Z,8.63
2019-04-20T15:12:13.062Z,11.87
2019-04-20T15:14:42.906Z,9.67
2019-04-20T15:17:17.355Z,10.33
2019-04-20T15:19:57.236Z,8.60
2019-04-20T15:22:36.612Z,10.43
2019-04-20T15:25:07.738Z,12.97
2019-04-20T15:27:37.527Z,9.27
2019-04-20T15:30:08.634Z,7.57
2019-04-20T15:32:38.990Z,7.97
2019-04-20T15:35:09.359Z,6.70
2019-04-20T15:37:39.575Z,7.13
2019-04-20T15:40:10.854Z,6.70
2019-04-20T15:42:52.552Z,5.97
2019-04-20T15:45:13.540Z,6.33
2019-04-20T15:47:43.739Z,6.83
2019-04-20T15:50:14.148Z,5.97
2019-04-20T15:52:49.413Z,6.47
2019-04-20T15:55:21.656Z,5.63
2019-04-20T15:57:48.240Z,6.07
2019-04-20T16:00:18.533Z,5.93
2019-04-20T16:02:53.580Z,6.03
2019-04-20T16:05:40.804Z,6.67
2019-04-20T16:08:46.001Z,6.73
2019-04-20T16:11:15.652Z,5.20
2019-04-20T16:13:50.034Z,5.40
2019-04-20T16:16:16.580Z,5.17
2019-04-20T16:18:46.610Z,5.90
2019-04-20T16:21:22.496Z,5.33
2019-04-20T16:24:01.287Z,5.00
2019-04-20T16:26:39.923Z,5.60
2019-04-20T16:29:09.412Z,5.67
2019-04-20T16:31:40.410Z,6.90
2019-04-20T16:34:11.691Z,6.07
2019-04-20T16:36:41.268Z,5.90
2019-04-20T16:39:12.572Z,5.40
2019-04-20T16:41:42.456Z,14.67
2019-04-20T16:44:13.429Z,9.37
2019-04-20T16:46:43.310Z,16.07
2019-04-20T16:49:13.085Z,10.33
2019-04-20T16:51:43.013Z,14.53
2019-04-20T16:54:13.903Z,29.67
2019-04-20T16:56:44.520Z,38.27
2019-04-20T16:59:15.958Z,22.90
2019-04-20T17:01:46.655Z,26.50
2019-04-20T17:04:20.551Z,21.97
2019-04-20T17:07:08.015Z,21.00
2019-04-20T17:09:38.062Z,11.23
2019-04-20T17:12:08.001Z,13.47
2019-04-20T17:14:37.884Z,17.80
2019-04-20T17:17:09.363Z,20.90
2019-04-20T17:19:39.887Z,16.50
2019-04-20T17:22:09.860Z,17.40
2019-04-20T17:24:39.929Z,21.27
2019-04-20T17:27:28.919Z,20.40
2019-04-20T17:30:21.172Z,36.47
2019-04-20T17:32:49.667Z,33.70
2019-04-20T17:35:30.667Z,34.70
2019-04-20T17:37:53.426Z,30.40
2019-04-20T17:40:41.726Z,16.70
2019-04-20T17:43:05.439Z,15.33
2019-04-20T17:45:38.919Z,14.30
2019-04-20T17:48:10.156Z,17.23
2019-04-20T17:50:46.735Z,19.27
2019-04-20T17:53:13.923Z,23.80
2019-04-20T17:55:42.618Z,44.10
2019-04-20T17:58:15.874Z,21.53
2019-04-20T18:01:24.042Z,14.83
2019-04-20T18:04:10.840Z,16.90
2019-04-20T18:06:35.819Z,15.50
2019-04-20T18:09:05.311Z,19.60
2019-04-20T18:11:22.555Z,22.47
2019-04-20T18:14:00.576Z,19.63
2019-04-20T18:16:46.446Z,10.87
2019-04-20T18:19:13.278Z,15.73
2019-04-20T18:21:49.773Z,15.70
2019-04-20T18:24:42.609Z,16.73
2019-04-20T18:27:07.356Z,11.63
2019-04-20T18:29:42.078Z,12.63
2019-04-20T18:32:15.836Z,9.17
2019-04-20T18:34:53.224Z,9.20
2019-04-20T18:37:22.071Z,10.20
2019-04-20T18:39:59.583Z,13.53
2019-04-20T18:42:32.363Z,27.40
2019-04-20T18:45:12.561Z,18.73
2019-04-20T18:47:45.231Z,10.87
2019-04-20T18:50:10.531Z,4.97
2019-04-20T18:52:31.872Z,4.87
2019-04-20T18:55:07.503Z,5.27
2019-04-20T18:57:34.964Z,4.77
2019-04-20T19:00:07.911Z,5.27
2019-04-20T19:02:42.932Z,5.13
2019-04-20T19:05:11.535Z,5.23
2019-04-20T19:07:51.517Z,5.20
2019-04-20T19:10:23.028Z,6.57
2019-04-20T19:12:54.389Z,4.43
2019-04-20T19:16:03.697Z,4.93
2019-04-20T19:18:49.414Z,4.67
2019-04-20T19:21:07.382Z,5.03
2019-04-20T19:23:48.570Z,5.17
2019-04-20T19:26:15.488Z,5.13
2019-04-20T19:28:46.936Z,4.27
2019-04-20T19:31:28.749Z,5.50
2019-04-20T19:34:01.395Z,4.03
2019-04-20T19:36:27.605Z,4.13
2019-04-20T19:39:01.525Z,4.37
2019-04-20T19:41:31.974Z,6.20
2019-04-20T19:44:06.425Z,7.67
2019-04-20T19:46:53.608Z,8.57
2019-04-20T19:49:01.340Z,14.00
2019-04-20T19:51:49.353Z,13.67
2019-04-20T19:54:20.168Z,13.10
2019-04-20T19:56:41.409Z,7.33
2019-04-20T19:59:11.167Z,8.00
2019-04-20T20:01:29.480Z,7.60
2019-04-20T20:04:04.235Z,6.60
2019-04-20T20:06:39.135Z,9.13
2019-04-20T20:09:05.827Z,9.73
2019-04-20T20:11:38.479Z,14.80
2019-04-20T20:14:08.216Z,13.17
2019-04-20T20:16:56.433Z,11.73
2019-04-20T20:19:14.242Z,15.37
2019-04-20T20:21:51.446Z,11.23
2019-04-20T20:24:12.479Z,10.33
2019-04-20T20:26:48.364Z,10.57
2019-04-20T20:29:23.156Z,10.37
2019-04-20T20:32:03.348Z,11.80
2019-04-20T20:34:26.467Z,7.17
2019-04-20T20:36:54.647Z,6.07
2019-04-20T20:39:24.279Z,6.03
2019-04-20T20:42:04.309Z,7.93
2019-04-20T20:44:33.098Z,10.20
2019-04-20T20:47:00.764Z,10.27
2019-04-20T20:49:48.634Z,12.70
2019-04-20T20:52:12.334Z,8.03
2019-04-20T20:54:40.519Z,7.37
2019-04-20T20:57:04.904Z,6.17
2019-04-20T20:59:41.599Z,5.90
2019-04-20T21:02:08.024Z,6.10
2019-04-20T21:04:31.347Z,6.37
2019-04-20T21:07:02.579Z,7.00
2019-04-20T21:09:33.450Z,7.37
2019-04-20T21:12:08.454Z,9.37
2019-04-20T21:14:37.114Z,8.73
2019-04-20T21:17:12.947Z,10.23
2019-04-20T21:19:56.267Z,8.43
2019-04-20T21:22:15.360Z,24.03
2019-04-20T21:24:42.103Z,12.77
2019-04-20T21:27:15.314Z,7.53
2019-04-20T21:29:47.514Z,7.30
2019-04-20T21:32:17.647Z,11.17
2019-04-20T21:34:53.341Z,11.20
2019-04-20T21:37:20.103Z,13.10
2019-04-20T21:39:55.392Z,12.03
2019-04-20T21:42:24.426Z,12.63
2019-04-20T21:44:57.327Z,8.43
2019-04-20T21:47:30.763Z,12.43
2019-04-20T21:50:15.691Z,12.80
2019-04-20T21:52:34.281Z,12.03
2019-04-20T21:54:58.217Z,10.20
2019-04-20T21:57:32.579Z,10.07
2019-04-20T22:00:07.054Z,11.37
2019-04-20T22:02:37.735Z,10.87
2019-04-20T22:05:03.180Z,9.90
2019-04-20T22:07:32.755Z,9.60
2019-04-20T22:10:02.454Z,11.47
2019-04-20T22:12:39.824Z,16.73
2019-04-20T22:15:13.393Z,18.90
2019-04-20T22:17:36.415Z,16.87
2019-04-20T22:20:17.739Z,12.87
2019-04-20T22:22:52.329Z,14.37
2019-04-20T22:25:28.379Z,11.60
2019-04-20T22:27:42.156Z,11.83
2019-04-20T22:30:12.349Z,9.07
2019-04-20T22:32:46.413Z,6.97
2019-04-20T22:35:17.101Z,9.37
2019-04-20T22:37:58.863Z,10.20
2019-04-20T22:40:28.036Z,6.93
2019-04-20T22:42:59.866Z,6.00
2019-04-20T22:45:27.096Z,6.87
2019-04-20T22:48:02.240Z,5.73
2019-04-20T22:50:43.810Z,5.87
2019-04-20T22:53:21.686Z,6.93
2019-04-20T22:55:58.019Z,8.70
2019-04-20T22:58:19.433Z,7.00
2019-04-20T23:00:43.164Z,7.73
2019-04-20T23:03:07.183Z,12.97
2019-04-20T23:05:36.796Z,11.27
2019-04-20T23:08:06.697Z,6.00
2019-04-20T23:10:39.952Z,7.40
2019-04-20T23:13:09.453Z,5.30
2019-04-20T23:15:43.376Z,15.47
2019-04-20T23:18:11.929Z,18.00
2019-04-20T23:20:42.788Z,15.37
2019-04-20T23:23:16.975Z,12.23
2019-04-20T23:25:45.142Z,8.03
2019-04-20T23:28:18.016Z,7.77
2019-04-20T23:30:47.331Z,9.67
2019-04-20T23:33:18.071Z,8.80
2019-04-20T23:35:52.745Z,11.00
2019-04-20T23:38:22.491Z,9.33
2019-04-20T23:40:51.996Z,11.00
2019-04-20T23:43:28.958Z,13.50
2019-04-20T23:46:19.711Z,15.07
2019-04-20T23:49:06.592Z,11.43
2019-04-20T23:51:54.026Z,7.93
2019-04-20T23:54:13.833Z,9.70
2019-04-20T23:56:39.431Z,10.03
2019-04-20T23:59:10.648Z,6.10
